Flight Track Log - Related Links

Times and Time Zones

All times are in EDT time to prevent confusion due to time zone crossing. See the DLH1087 flight status page for this flight to view local times or setup timezone preferences in your user account.

Time Position Orientation Groundspeed Altitude Reporting Facility
EDT Latitude Longitude Course Direction KTS MPH feet Rate Location/Type
Sun 04:54:32 AM 43.8258 5.3884 18° North  Level Estimated
Sun 04:55:32 AM 43.9119 5.4272 18° North  Level Estimated
Sun 04:56:32 AM 43.9979 5.4662 18° North  Level Estimated
Sun 04:57:32 AM 44.0840 5.5053 18° North  Level Estimated
Sun 04:58:32 AM 44.1700 5.5445 18° North  Level Estimated
Sun 04:59:32 AM 44.2560 5.5838 18° North  Level Estimated
Sun 05:00:32 AM 44.3420 5.6233 18° North  Level Estimated
Sun 05:01:32 AM 44.4279 5.6628 18° North  Level Estimated
Sun 05:02:32 AM 44.5139 5.7025 18° North  Level Estimated
Sun 05:03:32 AM 44.5998 5.7422 18° North  Level Estimated
Sun 05:04:32 AM 44.6858 5.7821 18° North  Level Estimated
Sun 05:05:32 AM 44.7717 5.8222 18° North  Level Estimated
Sun 05:06:32 AM 44.8576 5.8623 18° North  Level Estimated
Sun 05:07:32 AM 44.9435 5.9026 18° North  Level Estimated
Sun 05:08:32 AM 45.0294 5.9429 18° North  Level Estimated
Sun 05:09:32 AM 45.1152 5.9834 18° North  Level Estimated
Sun 05:10:32 AM 45.2011 6.0241 18° North  Level Estimated
Sun 05:11:32 AM 45.2869 6.0648 18° North  Level Estimated
Sun 05:12:32 AM 45.3727 6.1057 19° North  Level Estimated
Sun 05:13:32 AM 45.4585 6.1467 19° North  Level Estimated
Sun 05:14:32 AM 45.5443 6.1878 19° North  Level Estimated
Sun 05:15:32 AM 45.6301 6.2290 19° North  Level Estimated
Sun 05:16:32 AM 45.7159 6.2704 19° North  Level Estimated
Sun 05:17:32 AM 45.8016 6.3119 19° North  Level Estimated
Sun 05:18:32 AM 45.8873 6.3535 19° North  Level Estimated
Sun 05:19:32 AM 45.9731 6.3952 19° North  Level Estimated
Sun 05:20:32 AM 46.0588 6.4371 19° North  Level Estimated
Sun 05:21:32 AM 46.1445 6.4791 19° North  Level Estimated
Sun 05:22:32 AM 46.2301 6.5213 19° North  Level Estimated
Sun 05:23:32 AM 46.3158 6.5635 19° North  Level Estimated
Sun 05:24:32 AM 46.4014 6.6060 19° North  Level Estimated
Sun 05:25:32 AM 46.4870 6.6485 19° North  Level Estimated
Sun 05:26:32 AM 46.5727 6.6912 19° North  Level Estimated
Sun 05:27:32 AM 46.6582 6.7340 19° North  Level Estimated
Sun 05:28:32 AM 46.7438 6.7769 19° North  Level Estimated
Sun 05:29:32 AM 46.8294 6.8200 19° North  Level Estimated
Sun 05:30:32 AM 46.9149 6.8632 19° North  Level Estimated
Sun 05:31:32 AM 47.0005 6.9066 19° North  Level Estimated
Sun 05:32:32 AM 47.0860 6.9501 19° North  Level Estimated
Sun 05:33:32 AM 47.1715 6.9937 19° North  Level Estimated
Sun 05:34:32 AM 47.2569 7.0375 19° North  Level Estimated
Sun 05:35:32 AM 47.3424 7.0814 19° North  Level Estimated
Sun 05:36:32 AM 47.4278 7.1255 19° North  Level Estimated
Sun 05:37:32 AM 47.5133 7.1697 19° North  Level Estimated
Sun 05:38:32 AM 47.5987 7.2140 19° North  Level Estimated
Sun 05:39:32 AM 47.6841 7.2585 19° North  Level Estimated
Sun 05:40:32 AM 47.7694 7.3031 19° North  Level Estimated
Sun 05:41:32 AM 47.8548 7.3479 19° North  Level Estimated
Sun 05:42:32 AM 47.9401 7.3928 19° North  Level Estimated
Sun 05:43:32 AM 48.0255 7.4379 19° North  Level Estimated
Sun 05:44:32 AM 48.1108 7.4832 20° North  Level Estimated
Sun 05:45:32 AM 48.1960 7.5285 20° North  Level Estimated
Sun 05:46:32 AM 48.2813 7.5741 20° North  Level Estimated
Sun 05:47:32 AM 48.3666 7.6198 20° North  Level Estimated
Sun 05:48:32 AM 48.4518 7.6656 20° North  Level Estimated
Sun 05:49:32 AM 48.5370 7.7116 20° North  Level Estimated
Sun 05:50:32 AM 48.6222 7.7577 20° North  Level Estimated
Sun 05:51:32 AM 48.7074 7.8040 20° North  Level Estimated
Sun 05:52:32 AM 48.7926 7.8505 20° North  Level Estimated
Sun 05:53:32 AM 48.8777 7.8971 20° North  Level Estimated
Sun 05:54:32 AM 48.9628 7.9439 20° North  Level Estimated
Sun 05:55:32 AM 49.0479 7.9908 20° North  Level Estimated
Sun 05:56:32 AM 49.1330 8.0379 20° North  Level Estimated
Sun 05:57:32 AM 49.2181 8.0852 20° North  Level Estimated
Sun 05:58:32 AM 49.3031 8.1326 20° North  Level Estimated
Sun 05:59:32 AM 49.3881 8.1802 20° North  Level Estimated
Sun 06:00:32 AM 49.4731 8.2280 20° North  Level Estimated
Sun 06:01:32 AM 49.5581 8.2759 20° North  Level Estimated
Sun 06:02:32 AM 49.6431 8.3239 20° North  Level Estimated
Sun 06:03:32 AM 49.7281 8.3722 20° North  Level Estimated
Sun 06:04:32 AM 49.8130 8.4206 20° North  Level Estimated
Sun 06:05:32 AM 49.8979 8.4692 20° North  Level Estimated
Sun 06:06:32 AM 49.9828 8.5180 20° North  Level Estimated
Sun 06:07:32 AM 50.0676 8.5669 200° South  Level Estimated
Sun 06:08:32 AM 49.9828 8.5180 20° North  Level Estimated
Sun 06:09:32 AM 50.0676 8.5669 200° South  Level Estimated
Sun 06:10:32 AM 49.9828 8.5180 20° North  Level Estimated
Sun 06:11:32 AM 50.0676 8.5669 200° South  Level Estimated
Sun 06:12:32 AM 49.9828 8.5180 20° North  Level Estimated
Sun 06:13:32 AM 50.0676 8.5669 200° South  Level Estimated
Sun 06:14:32 AM 49.9828 8.5180 20° North  Level Estimated
Sun 06:15:32 AM 50.0676 8.5669 200° South  Level Estimated
Sun 06:16:32 AM 49.9828 8.5180 20° North  Level Estimated
Sun 06:17:32 AM 50.0676 8.5669 200° South  Level Estimated
Sun 06:18:32 AM 49.9828 8.5180 20° North  Level Estimated
Sun 06:19:32 AM 50.0676 8.5669 200° South  Level Estimated
Sun 06:20:32 AM 49.9828 8.5180 20° North  Level Estimated
Sun 06:21:32 AM 50.0676 8.5669 20° North  Level Estimated

Login

Don't have an account? Register now (free) for customized features, flight alerts, and more!